Ana Sayfa
METAR-TAF:

METAR-TAF

Havaalanları :

Kimble County Airport

Junction, Teksas, Amerika Birleşik Devletleri

Enlem: 30-30-39N, Boylam: 099-45-59W, yükseklik: 527 m

Güncel hava durumu gözlemi

Rapor saat 19:51 UTC de 1 saat ve 1 dakika önce yapıldı.
Rüzgar güneydan 11 kt
Sıcaklık 18°C
Nem 34%
Basınç 1019 hPa
Görüş mesafesi: 16.1 km
Açık gökyüzü

METAR: KJCT 161951Z AUTO 18011KT 10SM CLR 18/02 A3010 RMK AO2 SLP177 T01830017

Saat: 14:52 (20:52 UTC)

Tahmin

Rapor saat 17:22 UTC de 3 saat ve 30 dakika önce yapıldı.
Ayın 16'si saat 18 UTC'den ayın 17'si saat 18 UTC'ye kadar geçerli Tahmin
Rüzgar değişken yönden 4 kt
Görüş mesafesi: 10 km
Açık gökyüzü

TAF: KJCT 161722Z 1618/1718 VRB04KT P6SM SKC

4.000'den fazla havaalanı için hava durumu gözlemleri ve tahminleri (METAR ve TAF raporları).

Kullanılabilir istasyonlar harita üzerinde sarı ve kırmızı noktalarla gösterilir.

İstasyonun adını görmek için fareyi noktanın üzerinde gezdirin.

Sonrasında hava gözlem ve tahminlerini görmek için tıklayın.

Haritayı değiştirmek için: yaklaştırmak için siyah artı işaretli yeşil düğmeye ve uzaklaştırmak için de eksi işaretli düğmeye hızla tıklayın; bitişik haritalar için yeşil okları kullanın.


METAR-TAF: